Time;durP1;ratioP1;P1;durP2;ratioP2;P2;SDS_P1;SDS_P2;PMS_P1;PMS_P2;Temp;Humidity;BMP_temperature;BMP_pressure;BME280_temperature;BME280_humidity;BME280_pressure;Samples;Min_cycle;Max_cycle;Signal;HPM_P1;HPM_P2
2021/05/15 00:00:14;;;;;;;;;;;;;;;5.24;90.30;100744.09;4999965;28;952;-77
2021/05/15 00:02:39;;;;;;;;;;;;;;;5.15;90.03;100745.13;4999334;28;2103;-77
2021/05/15 00:05:07;;;;;;;;;;;;;;;5.04;90.17;100734.41;4999986;28;893;-77
2021/05/15 00:07:33;;;;;;;;;;;;;;;5.00;90.03;100743.53;4998387;28;1299;-77
2021/05/15 00:09:59;;;;;;;;;;;;;;;4.96;91.01;100737.06;4999495;28;988;-77
2021/05/15 00:12:25;;;;;;;;;;;;;;;4.94;91.15;100736.56;4999338;28;2055;-77
2021/05/15 00:15:00;;;;;;;;;;;;;;;4.94;91.56;100733.84;5000275;28;988;-77
2021/05/15 00:17:25;;;;;;;;;;;;;;;4.96;91.24;100737.88;4981677;28;1910;-77
2021/05/15 00:19:51;;;;;;;;;;;;;;;4.95;91.15;100733.53;4999861;28;1950;-77
2021/05/15 00:22:16;;;;;;;;;;;;;;;4.90;90.84;100726.25;4999780;28;847;-76
2021/05/15 00:24:41;;;;;;;;;;;;;;;4.90;91.26;100728.19;4999621;28;1051;-77
2021/05/15 00:27:07;;;;;;;;;;;;;;;4.90;90.89;100730.91;4998743;28;1269;-77
2021/05/15 00:29:32;;;;;;;;;;;;;;;4.94;91.64;100728.38;4999704;28;909;-77
2021/05/15 00:31:57;;;;;;;;;;;;;;;4.99;91.38;100722.78;4998918;28;1977;-77
2021/05/15 00:34:23;;;;;;;;;;;;;;;5.00;91.30;100721.66;4999391;28;1027;-77
2021/05/15 00:36:48;;;;;;;;;;;;;;;4.90;91.24;100712.56;4997327;28;1420;-77
2021/05/15 00:39:15;;;;;;;;;;;;;;;4.78;91.05;100720.50;4998117;28;1439;-77
2021/05/15 00:41:40;;;;;;;;;;;;;;;4.69;91.99;100723.16;4998640;28;909;-77
2021/05/15 00:44:17;;;;;;;;;;;;;;;4.69;92.27;100714.16;4999062;28;849;-77
2021/05/15 00:46:45;;;;;;;;;;;;;;;4.66;91.79;100712.81;4998622;28;2121;-78
2021/05/15 00:49:12;;;;;;;;;;;;;;;4.61;91.66;100710.19;4998511;28;1877;-77
2021/05/15 00:51:37;;;;;;;;;;;;;;;4.56;92.28;100701.28;4997899;28;1898;-77
2021/05/15 00:54:04;;;;;;;;;;;;;;;4.50;92.58;100708.81;4998779;28;884;-77
2021/05/15 00:56:29;;;;;;;;;;;;;;;4.43;92.55;100702.91;4998609;28;841;-77
2021/05/15 00:58:56;;;;;;;;;;;;;;;4.35;92.00;100701.72;4996992;28;1634;-77
2021/05/15 01:01:22;;;;;;;;;;;;;;;4.33;91.95;100706.69;4998169;28;1933;-77
2021/05/15 01:03:49;;;;;;;;;;;;;;;4.28;92.73;100699.41;4981184;28;1626;-77
2021/05/15 01:06:14;;;;;;;;;;;;;;;4.26;92.33;100715.31;4998244;28;1072;-76
2021/05/15 01:08:45;;;;;;;;;;;;;;;4.28;92.75;100704.88;4997995;28;1978;-76
2021/05/15 01:11:10;;;;;;;;;;;;;;;4.35;93.20;100704.47;4998638;28;1903;-77
2021/05/15 01:13:36;;;;;;;;;;;;;;;4.37;93.36;100701.41;4998947;28;869;-77
2021/05/15 01:16:02;;;;;;;;;;;;;;;4.37;93.27;100704.16;4997684;28;2055;-77
2021/05/15 01:18:27;;;;;;;;;;;;;;;4.37;93.08;100699.50;4998040;28;1245;-77
2021/05/15 01:20:58;;;;;;;;;;;;;;;4.31;93.30;100698.00;4998797;28;786;-77
2021/05/15 01:23:23;;;;;;;;;;;;;;;4.23;93.08;100701.44;4998782;28;1000;-77
2021/05/15 01:25:49;;;;;;;;;;;;;;;4.24;93.51;100692.94;4998378;28;980;-76
2021/05/15 01:28:14;;;;;;;;;;;;;;;4.24;93.75;100692.94;4980620;28;1252;-77
2021/05/15 01:30:39;;;;;;;;;;;;;;;4.21;93.36;100690.81;4997990;28;1890;-77
2021/05/15 01:33:05;;;;;;;;;;;;;;;4.21;93.93;100684.53;4998242;28;1019;-78
2021/05/15 01:35:33;;;;;;;;;;;;;;;4.17;94.07;100687.06;5001033;28;1060;-77
2021/05/15 01:37:58;;;;;;;;;;;;;;;4.20;94.34;100691.09;5001191;28;1210;-77
2021/05/15 01:40:24;;;;;;;;;;;;;;;4.18;94.15;100677.75;5002474;28;975;-76
2021/05/15 01:42:49;;;;;;;;;;;;;;;4.11;93.36;100671.88;5001789;28;2095;-77
2021/05/15 01:45:15;;;;;;;;;;;;;;;4.00;93.06;100676.75;5001988;28;829;-77
2021/05/15 01:47:40;;;;;;;;;;;;;;;3.90;93.11;100668.75;5001420;28;2115;-77
2021/05/15 01:50:08;;;;;;;;;;;;;;;3.84;93.66;100676.22;5001855;28;869;-77
2021/05/15 01:52:33;;;;;;;;;;;;;;;3.85;93.64;100679.75;4998394;28;854;-77
2021/05/15 01:54:59;;;;;;;;;;;;;;;4.04;94.42;100690.59;4997491;28;892;-77
2021/05/15 01:57:24;;;;;;;;;;;;;;;4.35;94.99;100690.78;4996750;28;1905;-77
2021/05/15 01:59:49;;;;;;;;;;;;;;;4.64;95.12;100689.66;4997716;28;854;-77
2021/05/15 02:02:15;;;;;;;;;;;;;;;4.85;94.21;100696.25;4997359;28;2196;-77
2021/05/15 02:04:40;;;;;;;;;;;;;;;5.02;94.16;100686.59;4997857;28;932;-76
2021/05/15 02:07:05;;;;;;;;;;;;;;;5.18;93.78;100693.31;4979879;28;1201;-77
2021/05/15 02:09:31;;;;;;;;;;;;;;;5.31;93.44;100686.13;4997619;28;937;-77
2021/05/15 02:11:56;;;;;;;;;;;;;;;5.41;93.33;100682.34;4997392;28;1906;-77
2021/05/15 02:14:21;;;;;;;;;;;;;;;5.49;93.13;100678.84;4980455;28;761;-77
2021/05/15 02:16:47;;;;;;;;;;;;;;;5.56;92.78;100681.94;4978511;28;1891;-77
2021/05/15 02:19:12;;;;;;;;;;;;;;;5.67;92.98;100679.75;4980097;28;1383;-77
2021/05/15 02:21:37;;;;;;;;;;;;;;;5.77;92.70;100676.75;4997236;28;877;-77
2021/05/15 02:24:04;;;;;;;;;;;;;;;5.87;92.62;100677.59;4997878;28;817;-76
2021/05/15 02:26:29;;;;;;;;;;;;;;;5.96;92.22;100670.25;4996609;28;2053;-77
2021/05/15 02:28:54;;;;;;;;;;;;;;;6.02;91.96;100660.75;4996720;28;1218;-77
2021/05/15 02:31:20;;;;;;;;;;;;;;;6.10;91.72;100670.94;4997361;28;2059;-77
2021/05/15 02:33:45;;;;;;;;;;;;;;;6.13;91.45;100661.28;4997560;28;878;-77
2021/05/15 02:36:10;;;;;;;;;;;;;;;6.13;91.28;100659.34;4997336;28;791;-78
2021/05/15 02:38:36;;;;;;;;;;;;;;;6.14;91.18;100652.75;4997097;28;1898;-77
2021/05/15 02:41:01;;;;;;;;;;;;;;;6.19;91.25;100646.28;4998930;28;1031;-77
2021/05/15 02:43:26;;;;;;;;;;;;;;;6.20;90.94;100645.16;4996869;28;996;-77
2021/05/15 02:45:52;;;;;;;;;;;;;;;6.19;91.21;100649.84;4996546;28;2036;-78
2021/05/15 02:48:18;;;;;;;;;;;;;;;6.22;91.13;100646.44;4996341;28;1213;-77
2021/05/15 02:50:48;;;;;;;;;;;;;;;6.28;91.33;100649.03;4979274;28;1902;-77
2021/05/15 02:53:14;;;;;;;;;;;;;;;6.33;90.99;100657.94;4975644;28;2049;-77
2021/05/15 02:55:39;;;;;;;;;;;;;;;6.39;90.99;100650.38;4959967;28;1099;-77
2021/05/15 02:58:06;;;;;;;;;;;;;;;6.44;90.65;100646.66;4976520;28;1276;-76
2021/05/15 03:00:32;;;;;;;;;;;;;;;6.45;90.35;100645.53;4978304;28;1891;-78
2021/05/15 03:02:58;;;;;;;;;;;;;;;6.44;90.45;100644.72;4996553;28;838;-77
2021/05/15 03:05:25;;;;;;;;;;;;;;;6.44;90.28;100650.22;4996972;28;937;-77
2021/05/15 03:07:50;;;;;;;;;;;;;;;6.48;90.37;100644.91;4995375;28;2126;-77
2021/05/15 03:10:17;;;;;;;;;;;;;;;6.51;90.23;100639.56;4996614;28;1890;-77
2021/05/15 03:12:42;;;;;;;;;;;;;;;6.53;90.27;100642.81;4997104;28;821;-77
2021/05/15 03:15:11;;;;;;;;;;;;;;;6.57;90.63;100635.56;4999325;28;1048;-77
2021/05/15 03:17:39;;;;;;;;;;;;;;;6.62;90.39;100642.00;4999860;28;1988;-76
2021/05/15 03:20:07;;;;;;;;;;;;;;;6.69;89.72;100640.38;5001083;28;1015;-76
2021/05/15 03:22:32;;;;;;;;;;;;;;;6.72;89.91;100634.25;5000698;28;1159;-77
2021/05/15 03:24:58;;;;;;;;;;;;;;;6.75;89.88;100633.63;4999408;28;1185;-77
2021/05/15 03:27:23;;;;;;;;;;;;;;;6.74;89.39;100626.50;5000054;28;1163;-77
2021/05/15 03:29:49;;;;;;;;;;;;;;;6.76;89.68;100631.66;4982637;28;2091;-77
2021/05/15 03:32:14;;;;;;;;;;;;;;;6.79;89.49;100617.31;5000368;28;2111;-76
2021/05/15 03:34:39;;;;;;;;;;;;;;;6.84;89.56;100619.91;5000936;28;959;-77
2021/05/15 03:37:05;;;;;;;;;;;;;;;6.86;89.01;100614.88;4999969;28;1221;-77
2021/05/15 03:39:31;;;;;;;;;;;;;;;6.90;89.10;100623.28;5000303;28;964;-77
2021/05/15 03:41:56;;;;;;;;;;;;;;;6.95;88.93;100626.66;5000767;28;1040;-77
2021/05/15 03:44:21;;;;;;;;;;;;;;;7.01;88.63;100634.72;4995999;28;2114;-76
2021/05/15 03:46:48;;;;;;;;;;;;;;;7.00;88.54;100625.69;4991163;28;1985;-77
2021/05/15 03:49:14;;;;;;;;;;;;;;;7.03;88.65;100636.03;5000312;28;927;-76
2021/05/15 03:51:39;;;;;;;;;;;;;;;7.06;88.28;100629.88;4998614;28;1890;-76
2021/05/15 03:54:04;;;;;;;;;;;;;;;7.09;88.38;100634.72;4982940;28;814;-76
2021/05/15 03:56:30;;;;;;;;;;;;;;;7.12;88.02;100634.06;5000495;28;917;-77
2021/05/15 03:58:55;;;;;;;;;;;;;;;7.17;87.83;100624.84;4994905;28;2036;-77
2021/05/15 04:01:21;;;;;;;;;;;;;;;7.22;87.78;100630.19;4988524;28;2103;-77
2021/05/15 04:03:47;;;;;;;;;;;;;;;7.23;87.72;100625.50;5000553;28;835;-77
2021/05/15 04:06:13;;;;;;;;;;;;;;;7.27;87.45;100627.25;4999039;28;1487;-76
2021/05/15 04:08:38;;;;;;;;;;;;;;;7.31;86.98;100625.47;4999226;28;1284;-76
2021/05/15 04:11:03;;;;;;;;;;;;;;;7.36;86.57;100618.22;4999658;28;1952;-76
2021/05/15 04:16:31;;;;;;;;;;;;;;;7.56;86.04;100609.25;5000078;28;1854;-77
2021/05/15 04:18:54;;;;;;;;;;;;;;;7.69;86.06;100608.22;4998321;28;1314;-77
2021/05/15 04:21:19;;;;;;;;;;;;;;;7.78;86.03;100610.91;4999605;28;853;-76
2021/05/15 04:23:44;;;;;;;;;;;;;;;7.85;84.12;100618.66;4999733;28;1838;-76
2021/05/15 04:26:13;;;;;;;;;;;;;;;7.89;83.35;100609.44;4998255;28;2086;-77
2021/05/15 04:28:39;;;;;;;;;;;;;;;7.86;83.18;100604.59;4998754;28;1222;-77
2021/05/15 04:31:04;;;;;;;;;;;;;;;7.86;82.72;100606.53;4998855;28;1950;-76
2021/05/15 04:33:30;;;;;;;;;;;;;;;7.95;82.50;100603.75;4982049;28;1000;-76
2021/05/15 04:35:56;;;;;;;;;;;;;;;8.06;82.33;100599.47;4999516;28;848;-76
2021/05/15 04:38:22;;;;;;;;;;;;;;;8.11;81.39;100602.03;4981072;28;1277;-76
2021/05/15 04:40:48;;;;;;;;;;;;;;;8.25;81.18;100610.84;4981766;28;1918;-76
2021/05/15 04:43:14;;;;;;;;;;;;;;;8.33;81.34;100611.91;5001483;28;1133;-76
2021/05/15 04:45:41;;;;;;;;;;;;;;;8.35;80.55;100615.13;4981565;28;2055;-78
2021/05/15 04:48:06;;;;;;;;;;;;;;;8.36;80.19;100610.47;4998769;28;1230;-76
2021/05/15 04:50:32;;;;;;;;;;;;;;;8.37;80.16;100604.59;4981663;28;1922;-76
2021/05/15 04:52:57;;;;;;;;;;;;;;;8.41;80.10;100611.06;4981946;28;1349;-76
2021/05/15 04:55:22;;;;;;;;;;;;;;;8.41;80.56;100604.72;4998489;28;2032;-76
2021/05/15 04:57:48;;;;;;;;;;;;;;;8.47;80.60;100612.47;4980767;28;1186;-76
2021/05/15 05:00:14;;;;;;;;;;;;;;;8.56;81.36;100603.38;4998996;28;794;-76
2021/05/15 05:02:39;;;;;;;;;;;;;;;8.59;81.08;100616.47;4998683;28;2028;-76
2021/05/15 05:05:06;;;;;;;;;;;;;;;8.57;80.62;100608.53;4999094;28;844;-76
2021/05/15 05:07:32;;;;;;;;;;;;;;;8.55;79.13;100608.06;4998305;28;1304;-77
2021/05/15 05:09:57;;;;;;;;;;;;;;;8.53;79.48;100610.38;4998515;28;1870;-77
2021/05/15 05:12:22;;;;;;;;;;;;;;;8.52;79.45;100608.75;4998710;28;1965;-76
2021/05/15 05:14:47;;;;;;;;;;;;;;;8.48;79.36;100607.81;4999443;28;786;-76
2021/05/15 05:17:13;;;;;;;;;;;;;;;8.37;79.26;100614.81;4998139;28;2119;-76
2021/05/15 05:19:38;;;;;;;;;;;;;;;8.28;79.57;100617.63;4998794;28;968;-76
2021/05/15 05:22:03;;;;;;;;;;;;;;;8.26;79.93;100606.16;4998511;28;2049;-76
2021/05/15 05:24:30;;;;;;;;;;;;;;;8.34;80.14;100607.22;4998214;28;857;-78
2021/05/15 05:26:56;;;;;;;;;;;;;;;8.45;79.84;100606.50;4980761;28;1303;-77
2021/05/15 05:29:22;;;;;;;;;;;;;;;8.45;79.04;100606.50;4998454;28;852;-76
2021/05/15 05:31:51;;;;;;;;;;;;;;;8.43;78.58;100603.31;4997686;28;1979;-76
2021/05/15 05:34:17;;;;;;;;;;;;;;;8.46;79.14;100607.31;4996955;28;2187;-76
2021/05/15 05:36:42;;;;;;;;;;;;;;;8.59;78.96;100608.22;4997939;28;1981;-77
2021/05/15 05:39:14;;;;;;;;;;;;;;;8.72;78.39;100604.38;4997270;28;2204;-76
2021/05/15 05:41:39;;;;;;;;;;;;;;;8.81;78.79;100609.81;4998242;28;988;-76
2021/05/15 05:44:05;;;;;;;;;;;;;;;8.78;77.61;100607.72;4980357;28;847;-76
2021/05/15 05:46:31;;;;;;;;;;;;;;;8.71;77.86;100601.97;4997645;28;2012;-76
2021/05/15 05:48:57;;;;;;;;;;;;;;;8.71;78.16;100602.75;4979750;28;2024;-76
2021/05/15 05:51:22;;;;;;;;;;;;;;;8.67;78.71;100604.59;4998241;28;1894;-76
2021/05/15 05:53:49;;;;;;;;;;;;;;;8.75;79.17;100606.44;4979948;28;1417;-76
2021/05/15 05:56:14;;;;;;;;;;;;;;;8.73;77.87;100597.72;4980011;28;877;-77
2021/05/15 05:58:40;;;;;;;;;;;;;;;8.77;78.19;100601.44;4996718;28;1304;-76
2021/05/15 06:01:06;;;;;;;;;;;;;;;8.85;78.76;100608.78;4997282;28;1902;-76
2021/05/15 06:03:31;;;;;;;;;;;;;;;8.94;78.16;100608.69;4998180;28;924;-76
2021/05/15 06:05:56;;;;;;;;;;;;;;;8.98;77.95;100604.13;4997251;28;861;-76
2021/05/15 06:08:22;;;;;;;;;;;;;;;9.07;78.30;100593.03;4997143;28;1190;-76
2021/05/15 06:10:47;;;;;;;;;;;;;;;9.21;77.89;100587.22;4997152;28;1875;-76
2021/05/15 06:13:14;;;;;;;;;;;;;;;9.41;77.55;100591.88;4997354;28;876;-76
2021/05/15 06:15:40;;;;;;;;;;;;;;;9.60;77.27;100588.56;4997067;28;2239;-76
2021/05/15 06:18:05;;;;;;;;;;;;;;;9.72;75.03;100589.69;4996616;28;1237;-76
2021/05/15 06:20:30;;;;;;;;;;;;;;;9.89;75.15;100589.47;4979694;28;1039;-76
2021/05/15 06:22:56;;;;;;;;;;;;;;;9.89;74.04;100588.69;4996948;28;929;-76
2021/05/15 06:25:22;;;;;;;;;;;;;;;9.89;73.58;100586.72;4995376;28;1611;-76
2021/05/15 06:27:47;;;;;;;;;;;;;;;10.11;74.16;100577.16;4997804;28;2209;-76
2021/05/15 06:30:13;;;;;;;;;;;;;;;10.54;73.66;100575.72;4997544;28;847;-76
2021/05/15 06:32:38;;;;;;;;;;;;;;;10.80;71.31;100565.41;4984059;28;3045;-76
2021/05/15 06:35:05;;;;;;;;;;;;;;;10.89;71.72;100557.75;4978372;28;3577;-76
2021/05/15 06:37:30;;;;;;;;;;;;;;;11.12;71.27;100566.25;4976239;28;1233;-76
2021/05/15 06:39:55;;;;;;;;;;;;;;;11.19;69.53;100571.16;4988563;28;2034;-77
2021/05/15 06:42:21;;;;;;;;;;;;;;;10.62;69.86;100573.16;4978850;28;1798;-77
2021/05/15 06:44:48;;;;;;;;;;;;;;;10.02;71.77;100572.91;4996225;28;906;-76
2021/05/15 06:47:14;;;;;;;;;;;;;;;9.68;73.48;100575.81;4978016;28;2206;-77
2021/05/15 06:49:39;;;;;;;;;;;;;;;9.78;74.46;100574.56;4995675;28;2845;-76
2021/05/15 06:52:05;;;;;;;;;;;;;;;9.79;74.44;100574.22;4996323;28;1957;-76
2021/05/15 06:54:30;;;;;;;;;;;;;;;9.78;74.45;100572.59;4978395;28;960;-76
2021/05/15 06:56:55;;;;;;;;;;;;;;;9.78;74.72;100572.59;4995323;28;1890;-77
2021/05/15 06:59:21;;;;;;;;;;;;;;;9.75;73.98;100567.75;4996169;28;913;-76
2021/05/15 07:01:46;;;;;;;;;;;;;;;9.66;73.44;100566.28;4995943;28;2437;-76
2021/05/15 07:04:11;;;;;;;;;;;;;;;9.53;73.06;100560.75;4994233;28;1791;-76
2021/05/15 07:06:37;;;;;;;;;;;;;;;9.43;73.88;100565.91;4976596;28;803;-76
2021/05/15 07:09:03;;;;;;;;;;;;;;;9.51;74.65;100567.75;4977072;28;1344;-76
2021/05/15 07:11:28;;;;;;;;;;;;;;;9.62;74.64;100571.69;4977985;28;1898;-76
2021/05/15 07:13:54;;;;;;;;;;;;;;;9.77;74.23;100564.66;4977654;28;1019;-75
2021/05/15 07:16:19;;;;;;;;;;;;;;;9.84;73.83;100558.56;4984335;28;1977;-76
2021/05/15 07:18:44;;;;;;;;;;;;;;;9.97;73.09;100551.91;4995320;28;1276;-76
2021/05/15 07:21:10;;;;;;;;;;;;;;;9.84;72.43;100558.56;4995840;28;808;-76
2021/05/15 07:23:35;;;;;;;;;;;;;;;9.66;73.93;100555.25;4995932;28;852;-77
2021/05/15 07:26:00;;;;;;;;;;;;;;;9.52;73.98;100545.38;4996635;28;862;-76
2021/05/15 07:28:26;;;;;;;;;;;;;;;9.70;74.26;100543.16;4995578;28;2901;-77
2021/05/15 07:30:51;;;;;;;;;;;;;;;9.92;73.31;100536.38;4995478;28;2047;-76
2021/05/15 07:33:17;;;;;;;;;;;;;;;9.94;73.14;100534.06;4996721;28;889;-76
2021/05/15 07:35:43;;;;;;;;;;;;;;;9.85;73.75;100527.91;4996353;28;789;-76
2021/05/15 07:38:08;;;;;;;;;;;;;;;9.95;73.06;100527.44;4994894;28;1883;-76
2021/05/15 07:40:35;;;;;;;;;;;;;;;10.03;72.55;100527.63;4996260;28;1062;-76
2021/05/15 07:43:04;;;;;;;;;;;;;;;10.12;72.54;100511.75;4996273;28;904;-76
2021/05/15 07:45:30;;;;;;;;;;;;;;;10.39;72.15;100517.69;4995929;28;2029;-75
2021/05/15 07:47:56;;;;;;;;;;;;;;;11.01;71.34;100510.72;4995035;28;1316;-76
2021/05/15 07:50:22;;;;;;;;;;;;;;;11.07;69.03;100514.00;4995800;28;1914;-76
2021/05/15 07:52:48;;;;;;;;;;;;;;;10.62;70.08;100521.50;4995806;28;856;-77
2021/05/15 07:55:13;;;;;;;;;;;;;;;10.30;71.87;100529.66;4995982;28;1076;-75
2021/05/15 07:57:38;;;;;;;;;;;;;;;10.19;72.19;100530.47;4995037;28;2004;-76
2021/05/15 08:00:06;;;;;;;;;;;;;;;10.28;72.30;100528.41;4996116;28;1000;-76
2021/05/15 08:02:32;;;;;;;;;;;;;;;10.65;71.22;100528.28;4984133;28;2114;-78
2021/05/15 08:04:58;;;;;;;;;;;;;;;11.09;70.05;100523.56;4983891;28;889;-79
2021/05/15 08:07:24;;;;;;;;;;;;;;;11.45;70.03;100510.66;4992312;28;1481;-77
2021/05/15 08:09:49;;;;;;;;;;;;;;;11.77;68.59;100516.13;4999100;28;2111;-76
2021/05/15 08:12:15;;;;;;;;;;;;;;;11.93;67.27;100523.63;5000194;28;2153;-75
2021/05/15 08:14:40;;;;;;;;;;;;;;;11.74;66.95;100521.59;4982739;28;2223;-76
2021/05/15 08:17:05;;;;;;;;;;;;;;;11.24;68.31;100523.94;4999041;28;1229;-76
2021/05/15 08:19:31;;;;;;;;;;;;;;;10.80;69.87;100524.78;4999355;28;821;-75
2021/05/15 08:21:56;;;;;;;;;;;;;;;10.76;70.29;100534.91;4999210;28;817;-78
2021/05/15 08:24:21;;;;;;;;;;;;;;;10.95;70.09;100530.66;4999478;28;2059;-77
2021/05/15 08:26:47;;;;;;;;;;;;;;;10.83;70.70;100526.00;4982046;28;1229;-77
2021/05/15 08:29:15;;;;;;;;;;;;;;;10.62;71.07;100537.25;5000174;28;1838;-78
2021/05/15 08:31:41;;;;;;;;;;;;;;;10.41;72.05;100532.72;5003786;28;1903;-77
2021/05/15 08:34:06;;;;;;;;;;;;;;;10.66;71.57;100527.94;5005706;28;896;-78
2021/05/15 08:36:32;;;;;;;;;;;;;;;10.67;71.09;100523.22;5002811;28;2080;-79
2021/05/15 08:38:57;;;;;;;;;;;;;;;10.44;72.10;100523.75;5000437;28;1204;-78
2021/05/15 08:41:23;;;;;;;;;;;;;;;10.66;71.93;100527.94;5005881;28;1074;-77
2021/05/15 08:43:49;;;;;;;;;;;;;;;10.86;71.21;100519.78;5006305;28;898;-77
2021/05/15 08:46:15;;;;;;;;;;;;;;;11.17;70.39;100521.78;5007354;28;900;-77
2021/05/15 08:48:42;;;;;;;;;;;;;;;11.19;69.74;100516.69;5007526;28;1222;-78
2021/05/15 08:51:10;;;;;;;;;;;;;;;11.11;70.60;100514.94;5007289;28;2031;-78
2021/05/15 08:53:40;;;;;;;;;;;;;;;11.16;70.16;100506.38;5006632;28;1007;-78
2021/05/15 08:56:08;;;;;;;;;;;;;;;11.60;69.35;100506.25;5005578;28;2087;-77
2021/05/15 08:58:38;;;;;;;;;;;;;;;12.07;67.58;100515.66;5009557;28;1678;-78
2021/05/15 09:01:05;;;;;;;;;;;;;;;11.90;67.08;100507.72;5009664;28;1337;-78
2021/05/15 09:03:32;;;;;;;;;;;;;;;11.76;68.11;100505.44;5004013;28;1984;-78
2021/05/15 09:05:57;;;;;;;;;;;;;;;11.64;68.39;100507.16;4998213;28;2038;-78
2021/05/15 09:08:23;;;;;;;;;;;;;;;11.54;68.98;100504.13;4997208;28;2027;-75
2021/05/15 09:10:50;;;;;;;;;;;;;;;11.27;69.61;100501.91;4997148;28;2422;-75
2021/05/15 09:13:25;;;;;;;;;;;;;;;11.42;69.13;100497.53;4995733;28;2039;-76
2021/05/15 09:16:02;;;;;;;;;;;;;;;11.33;70.08;100499.66;4980807;28;1467;-76
2021/05/15 09:18:32;;;;;;;;;;;;;;;11.29;70.32;100501.56;4997088;28;1484;-76
2021/05/15 09:21:00;;;;;;;;;;;;;;;11.15;70.37;100498.44;4999693;28;2025;-76
2021/05/15 09:23:28;;;;;;;;;;;;;;;11.19;70.57;100486.28;4977511;28;1940;-76
2021/05/15 09:25:56;;;;;;;;;;;;;;;11.62;69.29;100490.09;4980337;28;2148;-76
2021/05/15 09:28:44;;;;;;;;;;;;;;;11.71;68.77;100494.66;4997910;28;1292;-76
2021/05/15 09:31:16;;;;;;;;;;;;;;;11.79;69.44;100483.38;4997887;28;2297;-77
2021/05/15 09:34:06;;;;;;;;;;;;;;;12.28;68.17;100481.28;4997811;28;884;-76
2021/05/15 09:36:46;;;;;;;;;;;;;;;12.44;67.11;100486.75;4989753;28;1185;-76
2021/05/15 09:39:23;;;;;;;;;;;;;;;12.72;66.09;100478.22;4998630;28;1250;-76
2021/05/15 09:41:57;;;;;;;;;;;;;;;12.80;66.23;100482.69;5000009;28;1971;-76
2021/05/15 09:44:30;;;;;;;;;;;;;;;12.57;67.26;100472.38;4998020;28;1813;-77
2021/05/15 09:46:57;;;;;;;;;;;;;;;12.93;66.47;100469.47;4961043;28;1246;-76
2021/05/15 09:49:25;;;;;;;;;;;;;;;12.64;66.60;100468.94;4978476;28;871;-76
2021/05/15 09:51:54;;;;;;;;;;;;;;;12.57;66.90;100469.59;4995514;28;1906;-76
2021/05/15 09:54:25;;;;;;;;;;;;;;;12.54;68.06;100475.06;4997459;28;854;-76
2021/05/15 09:57:02;;;;;;;;;;;;;;;12.30;68.70;100471.47;4997212;28;1261;-77
2021/05/15 09:59:33;;;;;;;;;;;;;;;12.30;68.75;100462.34;4996070;28;1932;-76
2021/05/15 10:02:01;;;;;;;;;;;;;;;12.48;68.54;100454.41;4997463;28;1516;-75
2021/05/15 10:04:27;;;;;;;;;;;;;;;13.15;66.95;100454.81;4978926;28;1881;-76
2021/05/15 10:06:53;;;;;;;;;;;;;;;13.75;64.02;100439.50;4996808;28;1217;-77
2021/05/15 10:09:30;;;;;;;;;;;;;;;14.02;63.32;100434.72;4995968;28;814;-76
2021/05/15 10:11:56;;;;;;;;;;;;;;;14.32;62.26;100433.06;4996704;28;1890;-75
2021/05/15 10:14:22;;;;;;;;;;;;;;;14.14;62.34;100428.13;4991361;28;2743;-76
2021/05/15 10:16:47;;;;;;;;;;;;;;;14.45;62.42;100424.09;4977790;28;1410;-76
2021/05/15 10:19:15;;;;;;;;;;;;;;;15.16;61.04;100419.63;4995836;28;1072;-76
2021/05/15 10:21:40;;;;;;;;;;;;;;;15.42;58.61;100413.06;4997156;28;955;-76
2021/05/15 10:24:15;;;;;;;;;;;;;;;16.15;57.77;100409.47;4974931;28;3214;-76
2021/05/15 10:26:41;;;;;;;;;;;;;;;17.35;54.29;100414.03;4977718;28;1056;-76
2021/05/15 10:29:07;;;;;;;;;;;;;;;17.63;52.87;100404.81;4996488;28;1256;-76
2021/05/15 10:31:41;;;;;;;;;;;;;;;18.25;53.21;100397.81;4967477;28;2446;-77
2021/05/15 10:34:09;;;;;;;;;;;;;;;18.57;50.77;100392.03;4996467;28;933;-76
2021/05/15 10:36:46;;;;;;;;;;;;;;;18.22;50.68;100393.06;4996825;28;1978;-76
2021/05/15 10:39:12;;;;;;;;;;;;;;;17.09;51.75;100393.72;4977516;28;925;-76
2021/05/15 10:41:45;;;;;;;;;;;;;;;15.36;56.25;100393.13;4977000;28;806;-76
2021/05/15 10:44:12;;;;;;;;;;;;;;;14.66;58.81;100390.22;4994140;28;2880;-76
2021/05/15 10:46:51;;;;;;;;;;;;;;;14.82;58.77;100392.72;4995757;28;2145;-78
2021/05/15 10:49:24;;;;;;;;;;;;;;;15.10;58.48;100379.47;4996650;28;819;-76
2021/05/15 10:52:05;;;;;;;;;;;;;;;15.71;57.41;100377.03;4996031;28;1953;-76
2021/05/15 10:54:36;;;;;;;;;;;;;;;16.38;54.49;100372.94;4996855;28;952;-76
2021/05/15 10:57:15;;;;;;;;;;;;;;;17.35;52.84;100361.81;4978474;28;1922;-77
2021/05/15 10:59:43;;;;;;;;;;;;;;;18.18;50.67;100359.53;4996454;28;1757;-77
2021/05/15 11:02:11;;;;;;;;;;;;;;;18.86;47.88;100357.50;4996775;28;2102;-76
2021/05/15 11:04:53;;;;;;;;;;;;;;;19.27;46.96;100348.31;4997169;28;853;-77
2021/05/15 11:07:22;;;;;;;;;;;;;;;20.99;43.97;100346.03;4996352;28;1315;-76
2021/05/15 11:09:54;;;;;;;;;;;;;;;24.90;38.50;100333.75;4996625;28;1003;-77
2021/05/15 11:12:20;;;;;;;;;;;;;;;26.19;32.82;100326.28;4979588;28;1945;-76
2021/05/15 11:14:48;;;;;;;;;;;;;;;25.19;35.67;100329.97;4997280;28;1825;-77
2021/05/15 11:17:19;;;;;;;;;;;;;;;23.56;35.39;100325.78;4978928;28;1235;-77
2021/05/15 11:19:52;;;;;;;;;;;;;;;22.08;38.17;100336.28;4986516;28;2215;-78
2021/05/15 11:22:19;;;;;;;;;;;;;;;21.27;40.56;100324.25;4976877;28;901;-77
2021/05/15 11:24:53;;;;;;;;;;;;;;;21.03;40.69;100317.88;4977156;28;890;-77
2021/05/15 11:27:19;;;;;;;;;;;;;;;20.14;42.02;100317.28;4989918;28;2182;-77
2021/05/15 11:29:46;;;;;;;;;;;;;;;19.90;42.99;100312.41;4996752;28;1815;-76
2021/05/15 11:32:15;;;;;;;;;;;;;;;19.86;44.34;100302.44;4978955;28;1955;-76
2021/05/15 11:34:43;;;;;;;;;;;;;;;19.25;43.89;100298.34;4997792;28;904;-76
2021/05/15 11:37:11;;;;;;;;;;;;;;;18.71;45.57;100303.66;4999661;28;1225;-77
2021/05/15 11:39:37;;;;;;;;;;;;;;;18.39;47.22;100297.13;4999968;28;1791;-76
2021/05/15 11:42:11;;;;;;;;;;;;;;;18.74;46.67;100295.25;4980929;28;1960;-78
2021/05/15 11:44:40;;;;;;;;;;;;;;;22.75;39.43;100276.84;5000782;28;845;-76
2021/05/15 11:47:08;;;;;;;;;;;;;;;26.27;33.71;100273.03;4981432;28;2185;-76
2021/05/15 11:49:34;;;;;;;;;;;;;;;26.86;31.36;100266.56;4980813;28;1710;-77
2021/05/15 11:52:06;;;;;;;;;;;;;;;25.14;32.85;100263.53;4983638;28;1903;-77
2021/05/15 11:54:33;;;;;;;;;;;;;;;22.61;36.05;100271.59;5000095;28;1985;-76
2021/05/15 11:57:00;;;;;;;;;;;;;;;20.64;40.78;100269.69;4999727;28;1327;-76
2021/05/15 11:59:26;;;;;;;;;;;;;;;20.11;41.68;100271.28;5000707;28;929;-76
2021/05/15 12:01:52;;;;;;;;;;;;;;;19.87;41.68;100274.03;4999573;28;2021;-77
2021/05/15 12:04:25;;;;;;;;;;;;;;;19.86;42.08;100268.84;5000475;28;999;-76
2021/05/15 12:06:57;;;;;;;;;;;;;;;20.36;40.31;100273.69;5000497;28;1296;-77
2021/05/15 12:09:23;;;;;;;;;;;;;;;20.85;40.02;100267.72;4999814;28;1941;-75
2021/05/15 12:11:58;;;;;;;;;;;;;;;22.06;37.80;100263.66;4987296;28;1938;-76
2021/05/15 12:14:23;;;;;;;;;;;;;;;22.09;37.54;100254.31;5000727;28;893;-76
2021/05/15 12:16:49;;;;;;;;;;;;;;;21.33;40.36;100251.56;4999231;28;1296;-76
2021/05/15 12:19:26;;;;;;;;;;;;;;;20.41;42.16;100256.38;4992830;28;1999;-76
2021/05/15 12:21:57;;;;;;;;;;;;;;;19.04;44.43;100246.22;4996847;28;2269;-76
2021/05/15 12:24:22;;;;;;;;;;;;;;;17.72;48.48;100248.03;4999012;28;2019;-76
2021/05/15 12:26:48;;;;;;;;;;;;;;;16.96;50.41;100245.53;4999011;28;1360;-77
2021/05/15 12:29:13;;;;;;;;;;;;;;;16.21;51.53;100251.13;5001008;28;1989;-75
2021/05/15 12:31:42;;;;;;;;;;;;;;;15.45;53.34;100250.13;4999533;28;1874;-76
2021/05/15 12:34:08;;;;;;;;;;;;;;;14.23;62.14;100264.00;4998934;28;877;-76
2021/05/15 12:36:36;;;;;;;;;;;;;;;12.39;67.75;100277.44;4999024;28;1799;-75
2021/05/15 12:39:05;;;;;;;;;;;;;;;11.12;71.31;100281.66;4998075;28;1981;-76
2021/05/15 12:41:30;;;;;;;;;;;;;;;10.43;76.54;100270.97;4993809;28;2341;-76
2021/05/15 12:44:10;;;;;;;;;;;;;;;10.03;77.64;100268.34;4995214;28;1830;-76
2021/05/15 12:46:38;;;;;;;;;;;;;;;9.99;78.87;100260.00;4998422;28;961;-76
2021/05/15 12:49:15;;;;;;;;;;;;;;;10.39;81.65;100247.22;4980822;28;1210;-76
2021/05/15 12:51:44;;;;;;;;;;;;;;;11.29;82.16;100239.00;4998209;28;2062;-77
2021/05/15 12:54:17;;;;;;;;;;;;;;;12.49;81.68;100226.97;4998236;28;1945;-77
2021/05/15 12:56:50;;;;;;;;;;;;;;;13.94;77.22;100226.84;4998992;28;861;-76